86TX weather

Flying J Airport
Bulverde, Texas, United States

Public forecast

Using degrees Fahrenheit for public forecast. Weather courtesy of forecast.io.

METAR (pilot weather report)

Closest report is San Antonio International Airport, 13.1 nm (24.3 km) SSW. Retrieved 2019/07/20 04:51 UTC (21 minutes ago):

KSAT 200451Z 15015G22KT 10SM FEW250 27/21 A2999 RMK AO2 SLP135 T02720211

TAF (pilot weather forecast)

Forecast is more than 12 hours old.

Closest forecast is San Antonio International Airport, 13.1 nm (24.3 km) SSW. Retrieved 2019/07/19 00:27 UTC (1 day ago):

TAF KSAT 192324Z 2000/2106 14017KT P6SM FEW050 SCT250 FM200500 16011KT P6SM FEW250 FM201000 16008KT P6SM BKN009 BKN015 FM201300 16008KT P6SM BKN015 FM201500 15012KT P6SM SCT030